sensor_id;sensor_type;location;lat;lon;timestamp;pressure;altitude;pressure_sealevel;temperature;humidity
3812;BME280;1921;49.368;11.068;2024-02-26T00:01:39;95993.56;;;2.73;89.01
3812;BME280;1921;49.368;11.068;2024-02-26T00:04:05;96015.75;;;2.82;89.77
3812;BME280;1921;49.368;11.068;2024-02-26T00:06:31;96008.06;;;2.74;89.27
3812;BME280;1921;49.368;11.068;2024-02-26T00:08:57;96011.44;;;2.75;90.40
3812;BME280;1921;49.368;11.068;2024-02-26T00:11:23;95980.50;;;2.52;90.06
3812;BME280;1921;49.368;11.068;2024-02-26T00:13:49;96009.84;;;2.74;90.44
3812;BME280;1921;49.368;11.068;2024-02-26T00:16:15;96030.22;;;2.83;90.52
3812;BME280;1921;49.368;11.068;2024-02-26T00:18:40;95956.16;;;2.31;91.31
3812;BME280;1921;49.368;11.068;2024-02-26T00:21:06;95993.03;;;2.55;91.69
3812;BME280;1921;49.368;11.068;2024-02-26T00:23:32;95980.19;;;2.47;91.45
3812;BME280;1921;49.368;11.068;2024-02-26T00:25:57;95976.81;;;2.46;92.23
3812;BME280;1921;49.368;11.068;2024-02-26T00:28:23;95973.44;;;2.46;91.37
3812;BME280;1921;49.368;11.068;2024-02-26T00:30:50;96038.28;;;2.80;91.18
3812;BME280;1921;49.368;11.068;2024-02-26T00:33:21;96028.03;;;2.64;90.71
3812;BME280;1921;49.368;11.068;2024-02-26T00:35:48;95956.97;;;2.24;91.61
3812;BME280;1921;49.368;11.068;2024-02-26T00:38:14;95966.09;;;2.34;91.93
3812;BME280;1921;49.368;11.068;2024-02-26T00:40:39;95939.97;;;2.14;91.55
3812;BME280;1921;49.368;11.068;2024-02-26T00:43:07;95965.50;;;2.24;91.06
3812;BME280;1921;49.368;11.068;2024-02-26T00:45:32;96010.38;;;2.53;92.35
3812;BME280;1921;49.368;11.068;2024-02-26T00:47:59;95931.34;;;1.99;91.73
3812;BME280;1921;49.368;11.068;2024-02-26T00:50:27;95963.72;;;2.25;93.47
3812;BME280;1921;49.368;11.068;2024-02-26T00:52:52;95950.25;;;2.14;92.55
3812;BME280;1921;49.368;11.068;2024-02-26T00:55:18;95971.09;;;2.28;93.29
3812;BME280;1921;49.368;11.068;2024-02-26T00:57:44;95945.28;;;2.13;93.49
3812;BME280;1921;49.368;11.068;2024-02-26T01:00:10;95969.66;;;2.25;93.84
3812;BME280;1921;49.368;11.068;2024-02-26T01:02:36;95970.13;;;2.29;94.81
3812;BME280;1921;49.368;11.068;2024-02-26T01:05:02;95979.13;;;2.33;94.81
3812;BME280;1921;49.368;11.068;2024-02-26T01:07:28;95940.97;;;2.05;94.41
3812;BME280;1921;49.368;11.068;2024-02-26T01:09:54;96003.34;;;2.47;93.91
3812;BME280;1921;49.368;11.068;2024-02-26T01:12:19;95973.50;;;2.29;93.98
3812;BME280;1921;49.368;11.068;2024-02-26T01:14:45;95985.06;;;2.33;93.61
3812;BME280;1921;49.368;11.068;2024-02-26T01:17:11;95969.19;;;2.22;93.63
3812;BME280;1921;49.368;11.068;2024-02-26T01:19:36;96028.88;;;2.48;93.77
3812;BME280;1921;49.368;11.068;2024-02-26T01:22:02;95966.16;;;2.10;94.36
3812;BME280;1921;49.368;11.068;2024-02-26T01:24:29;95986.22;;;2.23;95.05
3812;BME280;1921;49.368;11.068;2024-02-26T01:26:54;95974.50;;;2.20;94.98
3812;BME280;1921;49.368;11.068;2024-02-26T01:29:20;96012.88;;;2.38;95.18
3812;BME280;1921;49.368;11.068;2024-02-26T01:31:46;95973.72;;;2.03;94.78
3812;BME280;1921;49.368;11.068;2024-02-26T01:34:12;95981.00;;;2.00;95.60
3812;BME280;1921;49.368;11.068;2024-02-26T01:36:37;95963.31;;;1.97;96.00
3812;BME280;1921;49.368;11.068;2024-02-26T01:39:03;95990.75;;;2.12;95.56
3812;BME280;1921;49.368;11.068;2024-02-26T01:41:29;95968.75;;;2.02;95.21
3812;BME280;1921;49.368;11.068;2024-02-26T01:43:54;95996.34;;;2.16;95.02
3812;BME280;1921;49.368;11.068;2024-02-26T01:46:20;96002.63;;;2.22;95.82
3812;BME280;1921;49.368;11.068;2024-02-26T01:48:47;95956.59;;;1.79;97.35
3812;BME280;1921;49.368;11.068;2024-02-26T01:51:16;95932.06;;;1.69;96.53
3812;BME280;1921;49.368;11.068;2024-02-26T01:53:43;95927.84;;;1.68;97.11
3812;BME280;1921;49.368;11.068;2024-02-26T01:56:09;95936.03;;;1.87;97.71
3812;BME280;1921;49.368;11.068;2024-02-26T01:58:35;95935.66;;;1.99;99.29
3812;BME280;1921;49.368;11.068;2024-02-26T02:01:02;95993.03;;;2.47;99.21
3812;BME280;1921;49.368;11.068;2024-02-26T02:03:29;95967.97;;;2.49;100.00
3812;BME280;1921;49.368;11.068;2024-02-26T02:05:56;96013.34;;;2.81;100.00
3812;BME280;1921;49.368;11.068;2024-02-26T02:08:23;95927.38;;;2.59;100.00
3812;BME280;1921;49.368;11.068;2024-02-26T02:10:49;95912.53;;;2.69;100.00
3812;BME280;1921;49.368;11.068;2024-02-26T02:13:15;95997.56;;;3.38;100.00
3812;BME280;1921;49.368;11.068;2024-02-26T02:15:41;95913.81;;;2.96;100.00
3812;BME280;1921;49.368;11.068;2024-02-26T02:18:07;95961.00;;;3.34;100.00
3812;BME280;1921;49.368;11.068;2024-02-26T02:20:33;95926.00;;;3.25;98.88
3812;BME280;1921;49.368;11.068;2024-02-26T02:22:59;95988.53;;;3.57;94.70
3812;BME280;1921;49.368;11.068;2024-02-26T02:25:25;95979.25;;;3.47;95.14
3812;BME280;1921;49.368;11.068;2024-02-26T02:27:53;95926.34;;;2.99;96.06
3812;BME280;1921;49.368;11.068;2024-02-26T02:30:21;95934.69;;;3.01;96.63
3812;BME280;1921;49.368;11.068;2024-02-26T02:32:49;95992.72;;;3.35;96.49
3812;BME280;1921;49.368;11.068;2024-02-26T02:35:15;95944.31;;;3.07;96.88
3812;BME280;1921;49.368;11.068;2024-02-26T02:37:41;95936.91;;;3.04;96.72
3812;BME280;1921;49.368;11.068;2024-02-26T02:40:07;95945.59;;;3.11;96.34
3812;BME280;1921;49.368;11.068;2024-02-26T02:42:33;95988.34;;;3.43;97.18
3812;BME280;1921;49.368;11.068;2024-02-26T02:44:59;95976.44;;;3.42;97.46
3812;BME280;1921;49.368;11.068;2024-02-26T02:47:24;95945.28;;;3.29;97.68
3812;BME280;1921;49.368;11.068;2024-02-26T02:49:50;96002.63;;;3.69;97.12
3812;BME280;1921;49.368;11.068;2024-02-26T02:52:16;95963.66;;;3.49;97.47
3812;BME280;1921;49.368;11.068;2024-02-26T02:54:42;95957.84;;;3.47;96.83
3812;BME280;1921;49.368;11.068;2024-02-26T02:57:08;95810.81;;;2.58;96.60
3812;BME280;1921;49.368;11.068;2024-02-26T02:59:36;95950.31;;;3.45;96.89
3812;BME280;1921;49.368;11.068;2024-02-26T03:02:01;95958.25;;;3.59;96.98
3812;BME280;1921;49.368;11.068;2024-02-26T03:04:27;95936.06;;;3.35;96.19
3812;BME280;1921;49.368;11.068;2024-02-26T03:06:55;95876.78;;;2.51;98.20
3812;BME280;1921;49.368;11.068;2024-02-26T03:09:20;95963.03;;;2.70;100.00
3812;BME280;1921;49.368;11.068;2024-02-26T03:11:47;95978.09;;;2.81;100.00
3812;BME280;1921;49.368;11.068;2024-02-26T03:14:13;95963.53;;;2.96;100.00
3812;BME280;1921;49.368;11.068;2024-02-26T03:16:38;95932.13;;;3.01;99.37
3812;BME280;1921;49.368;11.068;2024-02-26T03:19:04;95981.34;;;3.52;98.69
3812;BME280;1921;49.368;11.068;2024-02-26T03:21:30;95896.28;;;3.14;98.51
3812;BME280;1921;49.368;11.068;2024-02-26T03:23:55;95913.16;;;3.40;98.68
3812;BME280;1921;49.368;11.068;2024-02-26T03:26:22;95942.97;;;3.72;97.63
3812;BME280;1921;49.368;11.068;2024-02-26T03:28:48;95972.28;;;3.94;97.13
3812;BME280;1921;49.368;11.068;2024-02-26T03:31:14;95973.06;;;3.94;96.38
3812;BME280;1921;49.368;11.068;2024-02-26T03:33:40;95962.94;;;3.93;96.63
3812;BME280;1921;49.368;11.068;2024-02-26T03:36:06;95972.28;;;3.94;95.80
3812;BME280;1921;49.368;11.068;2024-02-26T03:38:33;95987.94;;;4.07;95.96
3812;BME280;1921;49.368;11.068;2024-02-26T03:40:59;95966.31;;;3.93;95.52
3812;BME280;1921;49.368;11.068;2024-02-26T03:43:24;95970.66;;;3.93;94.88
3812;BME280;1921;49.368;11.068;2024-02-26T03:45:50;95925.63;;;3.66;94.13
3812;BME280;1921;49.368;11.068;2024-02-26T03:48:16;95934.75;;;3.39;92.54
3812;BME280;1921;49.368;11.068;2024-02-26T03:50:42;95954.44;;;3.32;95.20
3812;BME280;1921;49.368;11.068;2024-02-26T03:53:07;95820.47;;;2.56;94.82
3812;BME280;1921;49.368;11.068;2024-02-26T03:55:35;95952.97;;;3.52;95.29
3812;BME280;1921;49.368;11.068;2024-02-26T03:58:00;95962.09;;;3.63;95.06
3812;BME280;1921;49.368;11.068;2024-02-26T04:00:26;95933.16;;;3.53;95.54
3812;BME280;1921;49.368;11.068;2024-02-26T04:02:54;95994.69;;;3.93;95.18
3812;BME280;1921;49.368;11.068;2024-02-26T04:05:20;95945.31;;;3.67;95.01
3812;BME280;1921;49.368;11.068;2024-02-26T04:07:45;95948.31;;;3.70;95.05
3812;BME280;1921;49.368;11.068;2024-02-26T04:10:12;95904.97;;;3.36;93.64
3812;BME280;1921;49.368;11.068;2024-02-26T04:12:42;95933.44;;;3.43;94.76
3812;BME280;1921;49.368;11.068;2024-02-26T04:15:09;95952.19;;;3.51;94.30
3812;BME280;1921;49.368;11.068;2024-02-26T04:17:36;95949.44;;;3.53;94.30
3812;BME280;1921;49.368;11.068;2024-02-26T04:20:02;95987.16;;;3.69;94.53
3812;BME280;1921;49.368;11.068;2024-02-26T04:22:28;95981.47;;;3.36;95.11
3812;BME280;1921;49.368;11.068;2024-02-26T04:24:54;95937.16;;;2.94;96.69
3812;BME280;1921;49.368;11.068;2024-02-26T04:27:19;95954.03;;;3.20;96.04
3812;BME280;1921;49.368;11.068;2024-02-26T04:29:45;95969.03;;;3.39;95.90
3812;BME280;1921;49.368;11.068;2024-02-26T04:32:11;95959.34;;;3.41;96.09
3812;BME280;1921;49.368;11.068;2024-02-26T04:34:37;95955.13;;;3.48;95.65
3812;BME280;1921;49.368;11.068;2024-02-26T04:37:03;95997.16;;;3.87;95.93
3812;BME280;1921;49.368;11.068;2024-02-26T04:39:28;95975.28;;;3.83;95.58
3812;BME280;1921;49.368;11.068;2024-02-26T04:41:54;95970.81;;;3.76;96.10
3812;BME280;1921;49.368;11.068;2024-02-26T04:44:20;95956.50;;;3.74;95.56
3812;BME280;1921;49.368;11.068;2024-02-26T04:46:46;96017.91;;;4.08;95.15
3812;BME280;1921;49.368;11.068;2024-02-26T04:49:11;95928.66;;;3.55;95.67
3812;BME280;1921;49.368;11.068;2024-02-26T04:51:37;95969.22;;;3.90;95.54
3812;BME280;1921;49.368;11.068;2024-02-26T04:54:03;96000.91;;;4.14;94.92
3812;BME280;1921;49.368;11.068;2024-02-26T04:56:28;95949.81;;;3.65;95.99
3812;BME280;1921;49.368;11.068;2024-02-26T04:58:54;95971.06;;;3.67;95.65
3812;BME280;1921;49.368;11.068;2024-02-26T05:01:20;95995.69;;;3.69;96.14
3812;BME280;1921;49.368;11.068;2024-02-26T05:03:46;95863.81;;;2.90;95.87
3812;BME280;1921;49.368;11.068;2024-02-26T05:06:12;96013.00;;;3.98;95.51
3812;BME280;1921;49.368;11.068;2024-02-26T05:08:38;95965.13;;;3.81;95.56
3812;BME280;1921;49.368;11.068;2024-02-26T05:11:04;96006.81;;;4.22;95.76
3812;BME280;1921;49.368;11.068;2024-02-26T05:13:31;95972.09;;;3.95;95.42
3812;BME280;1921;49.368;11.068;2024-02-26T05:15:57;95958.22;;;3.96;94.98
3812;BME280;1921;49.368;11.068;2024-02-26T05:18:23;95978.75;;;3.90;93.88
3812;BME280;1921;49.368;11.068;2024-02-26T05:20:48;96027.63;;;3.83;95.83
3812;BME280;1921;49.368;11.068;2024-02-26T05:23:14;95976.94;;;3.75;96.16
3812;BME280;1921;49.368;11.068;2024-02-26T05:25:40;95974.75;;;3.87;95.45
3812;BME280;1921;49.368;11.068;2024-02-26T05:28:07;96012.13;;;4.21;95.63
3812;BME280;1921;49.368;11.068;2024-02-26T05:30:32;95979.84;;;4.10;95.27
3812;BME280;1921;49.368;11.068;2024-02-26T05:32:58;95986.97;;;4.23;94.82
3812;BME280;1921;49.368;11.068;2024-02-26T05:35:25;95988.47;;;4.32;94.76
3812;BME280;1921;49.368;11.068;2024-02-26T05:37:51;96040.72;;;4.64;94.95
3812;BME280;1921;49.368;11.068;2024-02-26T05:40:17;95982.97;;;4.35;94.21
3812;BME280;1921;49.368;11.068;2024-02-26T05:42:42;96043.09;;;4.65;94.39
3812;BME280;1921;49.368;11.068;2024-02-26T05:45:10;96044.38;;;4.69;94.52
3812;BME280;1921;49.368;11.068;2024-02-26T05:47:36;96039.00;;;4.71;94.17
3812;BME280;1921;49.368;11.068;2024-02-26T05:50:11;95971.75;;;4.28;94.29
3812;BME280;1921;49.368;11.068;2024-02-26T05:52:38;96003.88;;;4.55;93.88
3812;BME280;1921;49.368;11.068;2024-02-26T05:55:05;95989.28;;;4.47;93.89
3812;BME280;1921;49.368;11.068;2024-02-26T05:57:32;96007.06;;;4.57;93.87
3812;BME280;1921;49.368;11.068;2024-02-26T05:59:57;95991.50;;;4.50;93.48
3812;BME280;1921;49.368;11.068;2024-02-26T06:02:26;95995.28;;;3.81;94.17
3812;BME280;1921;49.368;11.068;2024-02-26T06:04:51;95988.72;;;2.86;100.00
3812;BME280;1921;49.368;11.068;2024-02-26T06:07:17;95995.28;;;2.89;100.00
3812;BME280;1921;49.368;11.068;2024-02-26T06:09:43;95977.56;;;2.94;100.00
3812;BME280;1921;49.368;11.068;2024-02-26T06:12:09;96026.50;;;3.40;100.00
3812;BME280;1921;49.368;11.068;2024-02-26T06:14:34;95987.31;;;3.30;99.10
3812;BME280;1921;49.368;11.068;2024-02-26T06:17:00;96011.47;;;3.51;98.56
3812;BME280;1921;49.368;11.068;2024-02-26T06:19:26;96005.16;;;3.54;98.57
3812;BME280;1921;49.368;11.068;2024-02-26T06:21:51;95953.84;;;3.44;98.28
3812;BME280;1921;49.368;11.068;2024-02-26T06:24:17;96052.88;;;4.25;98.12
3812;BME280;1921;49.368;11.068;2024-02-26T06:26:43;95996.38;;;4.01;98.73
3812;BME280;1921;49.368;11.068;2024-02-26T06:29:09;96025.31;;;4.26;98.12
3812;BME280;1921;49.368;11.068;2024-02-26T06:31:34;95910.00;;;3.67;97.72
3812;BME280;1921;49.368;11.068;2024-02-26T06:34:00;96033.34;;;4.61;97.73
3812;BME280;1921;49.368;11.068;2024-02-26T06:36:26;96025.94;;;4.72;97.53
3812;BME280;1921;49.368;11.068;2024-02-26T06:38:51;96027.63;;;4.80;97.72
3812;BME280;1921;49.368;11.068;2024-02-26T06:41:19;96041.94;;;4.97;97.28
3812;BME280;1921;49.368;11.068;2024-02-26T06:43:45;96034.66;;;4.71;93.42
3812;BME280;1921;49.368;11.068;2024-02-26T06:46:11;96008.31;;;4.61;94.20
3812;BME280;1921;49.368;11.068;2024-02-26T06:48:37;96043.28;;;4.93;94.72
3812;BME280;1921;49.368;11.068;2024-02-26T06:51:03;96064.31;;;5.26;93.84
3812;BME280;1921;49.368;11.068;2024-02-26T06:53:29;96069.69;;;5.46;94.11
3812;BME280;1921;49.368;11.068;2024-02-26T06:55:54;96053.94;;;5.41;93.52
3812;BME280;1921;49.368;11.068;2024-02-26T06:58:20;96063.78;;;5.31;90.12
3812;BME280;1921;49.368;11.068;2024-02-26T07:00:46;96065.19;;;4.53;93.54
3812;BME280;1921;49.368;11.068;2024-02-26T07:03:12;96020.19;;;3.65;97.68
3812;BME280;1921;49.368;11.068;2024-02-26T07:05:39;96080.06;;;3.75;100.00
3812;BME280;1921;49.368;11.068;2024-02-26T07:08:05;96011.81;;;3.26;100.00
3812;BME280;1921;49.368;11.068;2024-02-26T07:10:31;96038.44;;;3.64;100.00
3812;BME280;1921;49.368;11.068;2024-02-26T07:12:57;96056.41;;;4.10;99.92
3812;BME280;1921;49.368;11.068;2024-02-26T07:15:22;96067.34;;;4.49;96.51
3812;BME280;1921;49.368;11.068;2024-02-26T07:17:48;96075.50;;;4.82;94.62
3812;BME280;1921;49.368;11.068;2024-02-26T07:20:15;96095.25;;;5.20;94.14
3812;BME280;1921;49.368;11.068;2024-02-26T07:22:40;96102.81;;;5.57;94.03
3812;BME280;1921;49.368;11.068;2024-02-26T07:25:08;96109.31;;;5.89;93.43
3812;BME280;1921;49.368;11.068;2024-02-26T07:27:34;96091.44;;;6.09;92.93
3812;BME280;1921;49.368;11.068;2024-02-26T07:30:00;96067.31;;;5.87;89.83
3812;BME280;1921;49.368;11.068;2024-02-26T07:32:26;96087.47;;;6.13;88.94
3812;BME280;1921;49.368;11.068;2024-02-26T07:34:51;96086.72;;;5.55;87.67
3812;BME280;1921;49.368;11.068;2024-02-26T07:37:17;96072.00;;;5.20;91.65
3812;BME280;1921;49.368;11.068;2024-02-26T07:39:43;96084.75;;;5.06;92.84
3812;BME280;1921;49.368;11.068;2024-02-26T07:42:08;96040.44;;;4.58;95.21
3812;BME280;1921;49.368;11.068;2024-02-26T07:44:35;96081.19;;;5.07;94.05
3812;BME280;1921;49.368;11.068;2024-02-26T07:47:00;96029.91;;;4.90;91.65
3812;BME280;1921;49.368;11.068;2024-02-26T07:49:26;96039.63;;;4.88;92.14
3812;BME280;1921;49.368;11.068;2024-02-26T07:51:52;96114.88;;;6.08;89.52
3812;BME280;1921;49.368;11.068;2024-02-26T07:54:17;96069.84;;;6.02;86.59
3812;BME280;1921;49.368;11.068;2024-02-26T07:56:44;96081.28;;;6.70;85.28
3812;BME280;1921;49.368;11.068;2024-02-26T07:59:10;96103.56;;;7.41;83.90
3812;BME280;1921;49.368;11.068;2024-02-26T08:01:36;96091.69;;;7.79;81.50
3812;BME280;1921;49.368;11.068;2024-02-26T08:04:04;96076.94;;;8.06;80.39
3812;BME280;1921;49.368;11.068;2024-02-26T08:06:30;96093.94;;;8.42;77.35
3812;BME280;1921;49.368;11.068;2024-02-26T08:08:58;96133.47;;;8.90;76.50
3812;BME280;1921;49.368;11.068;2024-02-26T08:11:23;96145.03;;;9.14;74.82
3812;BME280;1921;49.368;11.068;2024-02-26T08:13:49;96058.94;;;8.71;71.47
3812;BME280;1921;49.368;11.068;2024-02-26T08:16:15;96101.47;;;8.97;68.50
3812;BME280;1921;49.368;11.068;2024-02-26T08:18:41;96109.28;;;8.83;64.07
3812;BME280;1921;49.368;11.068;2024-02-26T08:21:06;96110.25;;;8.96;64.99
3812;BME280;1921;49.368;11.068;2024-02-26T08:23:34;96141.00;;;9.18;66.21
3812;BME280;1921;49.368;11.068;2024-02-26T08:25:59;96150.00;;;9.16;65.66
3812;BME280;1921;49.368;11.068;2024-02-26T08:28:25;96106.06;;;9.01;65.09
3812;BME280;1921;49.368;11.068;2024-02-26T08:30:51;96186.97;;;9.31;65.68
3812;BME280;1921;49.368;11.068;2024-02-26T08:33:16;96137.00;;;9.16;64.50
3812;BME280;1921;49.368;11.068;2024-02-26T08:35:42;96031.78;;;7.94;63.96
3812;BME280;1921;49.368;11.068;2024-02-26T08:38:08;96136.41;;;9.21;64.45
3812;BME280;1921;49.368;11.068;2024-02-26T08:40:33;96151.06;;;9.60;63.87
3812;BME280;1921;49.368;11.068;2024-02-26T08:42:59;96152.78;;;9.79;62.20
3812;BME280;1921;49.368;11.068;2024-02-26T08:45:25;96167.25;;;10.07;59.99
3812;BME280;1921;49.368;11.068;2024-02-26T08:47:52;96142.72;;;10.21;59.90
3812;BME280;1921;49.368;11.068;2024-02-26T08:50:18;96123.03;;;9.93;60.89
3812;BME280;1921;49.368;11.068;2024-02-26T08:52:44;96138.41;;;10.40;58.28
3812;BME280;1921;49.368;11.068;2024-02-26T08:55:14;96118.81;;;9.09;62.70
3812;BME280;1921;49.368;11.068;2024-02-26T08:57:39;96145.47;;;10.01;60.14
3812;BME280;1921;49.368;11.068;2024-02-26T09:00:06;96120.28;;;9.88;58.15
3812;BME280;1921;49.368;11.068;2024-02-26T09:02:32;96090.34;;;8.50;62.25
3812;BME280;1921;49.368;11.068;2024-02-26T09:04:58;96110.69;;;9.51;60.20
3812;BME280;1921;49.368;11.068;2024-02-26T09:07:24;96085.84;;;9.86;60.54
3812;BME280;1921;49.368;11.068;2024-02-26T09:09:49;96143.28;;;10.79;58.63
3812;BME280;1921;49.368;11.068;2024-02-26T09:12:16;96118.47;;;11.14;55.94
3812;BME280;1921;49.368;11.068;2024-02-26T09:14:42;96102.97;;;11.00;52.89
3812;BME280;1921;49.368;11.068;2024-02-26T09:17:07;96096.75;;;11.20;54.34
3812;BME280;1921;49.368;11.068;2024-02-26T09:19:33;96095.50;;;10.61;52.80
3812;BME280;1921;49.368;11.068;2024-02-26T09:21:59;96103.06;;;11.60;52.66
3812;BME280;1921;49.368;11.068;2024-02-26T09:24:25;96100.47;;;12.79;50.66
3812;BME280;1921;49.368;11.068;2024-02-26T09:26:51;96128.56;;;13.07;48.29
3812;BME280;1921;49.368;11.068;2024-02-26T09:29:17;96104.41;;;12.11;50.23
3812;BME280;1921;49.368;11.068;2024-02-26T09:31:43;96096.75;;;12.63;47.91
3812;BME280;1921;49.368;11.068;2024-02-26T09:34:12;96084.81;;;12.68;47.46
3812;BME280;1921;49.368;11.068;2024-02-26T09:36:38;96087.72;;;11.34;52.31
3812;BME280;1921;49.368;11.068;2024-02-26T09:39:04;96047.41;;;10.38;52.66
3812;BME280;1921;49.368;11.068;2024-02-26T09:41:30;96069.16;;;8.33;58.10
3812;BME280;1921;49.368;11.068;2024-02-26T09:43:57;96057.97;;;8.06;59.36
3812;BME280;1921;49.368;11.068;2024-02-26T09:46:25;96048.19;;;8.08;60.52
3812;BME280;1921;49.368;11.068;2024-02-26T09:48:51;96022.78;;;8.30;59.10
3812;BME280;1921;49.368;11.068;2024-02-26T09:51:17;96054.81;;;9.08;58.97
3812;BME280;1921;49.368;11.068;2024-02-26T09:53:44;96072.31;;;10.03;57.21
3812;BME280;1921;49.368;11.068;2024-02-26T09:56:12;96051.94;;;10.68;53.23
3812;BME280;1921;49.368;11.068;2024-02-26T09:58:39;96059.34;;;11.26;51.42
3812;BME280;1921;49.368;11.068;2024-02-26T10:01:15;96105.31;;;12.05;50.17
3812;BME280;1921;49.368;11.068;2024-02-26T10:03:42;96125.25;;;12.53;49.02
3812;BME280;1921;49.368;11.068;2024-02-26T10:06:11;96071.00;;;12.13;47.53
3812;BME280;1921;49.368;11.068;2024-02-26T10:08:37;96115.38;;;12.44;48.15
3812;BME280;1921;49.368;11.068;2024-02-26T10:11:08;96124.22;;;12.31;48.84
3812;BME280;1921;49.368;11.068;2024-02-26T10:13:37;96097.00;;;11.12;52.10
3812;BME280;1921;49.368;11.068;2024-02-26T10:16:04;96132.19;;;11.94;51.37
3812;BME280;1921;49.368;11.068;2024-02-26T10:18:51;96087.19;;;11.62;48.74
3812;BME280;1921;49.368;11.068;2024-02-26T10:21:18;96108.75;;;12.29;48.81
3812;BME280;1921;49.368;11.068;2024-02-26T10:23:45;96099.88;;;10.42;52.55
3812;BME280;1921;49.368;11.068;2024-02-26T10:26:15;96117.59;;;11.20;51.79
3812;BME280;1921;49.368;11.068;2024-02-26T10:28:45;96100.41;;;11.79;50.23
3812;BME280;1921;49.368;11.068;2024-02-26T10:31:11;96121.19;;;12.57;48.44
3812;BME280;1921;49.368;11.068;2024-02-26T10:33:39;96127.59;;;12.20;47.28
3812;BME280;1921;49.368;11.068;2024-02-26T10:36:06;96125.25;;;11.88;49.27
3812;BME280;1921;49.368;11.068;2024-02-26T10:38:34;96166.91;;;12.66;47.71
3812;BME280;1921;49.368;11.068;2024-02-26T10:41:05;96158.94;;;12.97;48.23
3812;BME280;1921;49.368;11.068;2024-02-26T10:43:31;96106.50;;;11.43;49.22
3812;BME280;1921;49.368;11.068;2024-02-26T10:45:57;96031.88;;;9.75;51.39
3812;BME280;1921;49.368;11.068;2024-02-26T10:48:23;96114.03;;;9.96;53.04
3812;BME280;1921;49.368;11.068;2024-02-26T10:50:49;96163.41;;;10.47;53.22
3812;BME280;1921;49.368;11.068;2024-02-26T10:53:29;96150.25;;;10.86;52.87
3812;BME280;1921;49.368;11.068;2024-02-26T10:56:03;96133.13;;;11.33;50.15
3812;BME280;1921;49.368;11.068;2024-02-26T10:58:29;96122.38;;;11.23;50.39
3812;BME280;1921;49.368;11.068;2024-02-26T11:00:57;96123.50;;;11.64;49.51
3812;BME280;1921;49.368;11.068;2024-02-26T11:03:23;95932.84;;;10.68;47.74
3812;BME280;1921;49.368;11.068;2024-02-26T11:05:50;96161.25;;;11.49;50.27
3812;BME280;1921;49.368;11.068;2024-02-26T11:08:18;96101.63;;;11.46;51.14
3812;BME280;1921;49.368;11.068;2024-02-26T11:10:47;96129.34;;;13.43;48.25
3812;BME280;1921;49.368;11.068;2024-02-26T11:13:17;96126.59;;;14.69;44.56
3812;BME280;1921;49.368;11.068;2024-02-26T11:15:46;96106.94;;;15.71;42.42
3812;BME280;1921;49.368;11.068;2024-02-26T11:18:15;96061.09;;;15.61;39.20
3812;BME280;1921;49.368;11.068;2024-02-26T11:20:41;96121.59;;;15.88;40.63
3812;BME280;1921;49.368;11.068;2024-02-26T11:23:08;96141.84;;;16.74;38.14
3812;BME280;1921;49.368;11.068;2024-02-26T11:25:36;96131.16;;;17.33;37.68
3812;BME280;1921;49.368;11.068;2024-02-26T11:28:06;96127.16;;;17.20;36.33
3812;BME280;1921;49.368;11.068;2024-02-26T11:30:36;96120.91;;;13.81;42.27
3812;BME280;1921;49.368;11.068;2024-02-26T11:33:09;96147.22;;;12.52;46.72
3812;BME280;1921;49.368;11.068;2024-02-26T11:35:39;96105.16;;;11.70;47.87
3812;BME280;1921;49.368;11.068;2024-02-26T11:38:06;96157.75;;;13.63;45.06
3812;BME280;1921;49.368;11.068;2024-02-26T11:40:37;96118.94;;;12.61;46.85
3812;BME280;1921;49.368;11.068;2024-02-26T11:43:05;96157.03;;;12.92;46.21
3812;BME280;1921;49.368;11.068;2024-02-26T11:48:22;96169.44;;;15.47;41.49
3812;BME280;1921;49.368;11.068;2024-02-26T11:50:53;96134.41;;;16.34;39.69
3812;BME280;1921;49.368;11.068;2024-02-26T11:53:31;96126.50;;;17.56;38.40
3812;BME280;1921;49.368;11.068;2024-02-26T11:59:11;96139.84;;;17.34;37.87
3812;BME280;1921;49.368;11.068;2024-02-26T12:01:48;96116.69;;;18.60;35.66
3812;BME280;1921;49.368;11.068;2024-02-26T12:04:19;96101.75;;;19.45;33.34
3812;BME280;1921;49.368;11.068;2024-02-26T12:06:57;96107.44;;;19.83;33.46
3812;BME280;1921;49.368;11.068;2024-02-26T12:09:40;96101.22;;;19.43;32.93
3812;BME280;1921;49.368;11.068;2024-02-26T12:12:13;96113.88;;;19.56;33.20
3812;BME280;1921;49.368;11.068;2024-02-26T12:14:55;96119.78;;;19.33;33.33
3812;BME280;1921;49.368;11.068;2024-02-26T12:17:25;96108.34;;;19.58;32.95
3812;BME280;1921;49.368;11.068;2024-02-26T12:19:52;96089.19;;;17.89;34.63
3812;BME280;1921;49.368;11.068;2024-02-26T12:22:19;96118.22;;;19.06;34.03
3812;BME280;1921;49.368;11.068;2024-02-26T12:24:45;96096.63;;;17.35;36.20
3812;BME280;1921;49.368;11.068;2024-02-26T12:27:11;96101.91;;;18.33;35.30
3812;BME280;1921;49.368;11.068;2024-02-26T12:29:37;96119.38;;;17.56;36.23
3812;BME280;1921;49.368;11.068;2024-02-26T12:32:04;96147.88;;;18.73;34.78
3812;BME280;1921;49.368;11.068;2024-02-26T12:34:31;96126.88;;;16.80;37.28
3812;BME280;1921;49.368;11.068;2024-02-26T12:36:57;96155.63;;;14.34;42.56
3812;BME280;1921;49.368;11.068;2024-02-26T12:39:23;96116.00;;;14.30;42.29
3812;BME280;1921;49.368;11.068;2024-02-26T12:41:49;96086.50;;;14.40;42.05
3812;BME280;1921;49.368;11.068;2024-02-26T12:44:24;96151.22;;;13.37;42.82
3812;BME280;1921;49.368;11.068;2024-02-26T12:46:50;96143.16;;;14.24;43.61
3812;BME280;1921;49.368;11.068;2024-02-26T12:49:16;96158.50;;;15.55;41.03
3812;BME280;1921;49.368;11.068;2024-02-26T12:51:45;96109.53;;;16.20;38.89
3812;BME280;1921;49.368;11.068;2024-02-26T12:54:11;96129.47;;;14.05;41.00
3812;BME280;1921;49.368;11.068;2024-02-26T12:56:38;96135.16;;;14.98;39.35
3812;BME280;1921;49.368;11.068;2024-02-26T12:59:04;96099.66;;;15.78;37.89
3812;BME280;1921;49.368;11.068;2024-02-26T13:01:30;96104.66;;;16.65;36.95
3812;BME280;1921;49.368;11.068;2024-02-26T13:03:56;96152.47;;;17.27;36.23
3812;BME280;1921;49.368;11.068;2024-02-26T13:06:22;96136.97;;;17.35;35.59
3812;BME280;1921;49.368;11.068;2024-02-26T13:08:49;96172.81;;;15.64;36.70
3812;BME280;1921;49.368;11.068;2024-02-26T13:11:15;96152.28;;;14.05;40.67
3812;BME280;1921;49.368;11.068;2024-02-26T13:13:41;96119.53;;;14.52;39.59
3812;BME280;1921;49.368;11.068;2024-02-26T13:16:16;96144.47;;;16.42;36.97
3812;BME280;1921;49.368;11.068;2024-02-26T13:18:42;96104.00;;;17.33;35.17
3812;BME280;1921;49.368;11.068;2024-02-26T13:21:13;96146.66;;;17.82;34.84